createdAt,value
2019-06-29T00:00:27.009Z,18.71
2019-06-29T00:01:27.004Z,18.63
2019-06-29T00:02:27.008Z,18.56
2019-06-29T00:03:27.010Z,18.41
2019-06-29T00:04:27.225Z,18.44
2019-06-29T00:05:27.023Z,18.25
2019-06-29T00:06:27.027Z,18.23
2019-06-29T00:07:27.031Z,18.15
2019-06-29T00:08:27.029Z,18.13
2019-06-29T00:09:27.023Z,18.04
2019-06-29T00:10:27.054Z,18.10
2019-06-29T00:11:27.033Z,18.08
2019-06-29T00:12:27.055Z,18.00
2019-06-29T00:13:27.061Z,18.04
2019-06-29T00:14:27.042Z,18.03
2019-06-29T00:15:27.062Z,17.97
2019-06-29T00:16:27.065Z,18.00
2019-06-29T00:17:27.067Z,18.01
2019-06-29T00:18:27.051Z,17.82
2019-06-29T00:19:27.056Z,17.90
2019-06-29T00:20:27.104Z,17.85
2019-06-29T00:21:27.060Z,17.82
2019-06-29T00:22:27.065Z,17.72
2019-06-29T00:23:27.079Z,17.71
2019-06-29T00:24:27.086Z,17.57
2019-06-29T00:25:27.083Z,17.57
2019-06-29T00:26:27.082Z,17.49
2019-06-29T00:27:27.210Z,17.51
2019-06-29T00:28:27.081Z,17.42
2019-06-29T00:29:27.097Z,17.42
2019-06-29T00:30:27.085Z,17.41
2019-06-29T00:31:27.089Z,17.26
2019-06-29T00:32:27.305Z,17.26
2019-06-29T00:33:27.093Z,17.24
2019-06-29T00:34:27.091Z,17.22
2019-06-29T00:35:27.103Z,17.19
2019-06-29T00:36:27.298Z,17.19
2019-06-29T00:37:27.122Z,17.08
2019-06-29T00:38:27.332Z,17.12
2019-06-29T00:39:27.109Z,16.99
2019-06-29T00:40:27.120Z,17.01
2019-06-29T00:41:27.115Z,16.90
2019-06-29T00:42:27.133Z,16.84
2019-06-29T00:43:27.142Z,16.84
2019-06-29T00:44:27.143Z,16.78
2019-06-29T00:45:27.129Z,16.75
2019-06-29T00:46:27.124Z,16.72
2019-06-29T00:47:27.140Z,16.69
2019-06-29T00:48:27.143Z,16.61
2019-06-29T00:49:27.143Z,16.58
2019-06-29T00:50:27.143Z,16.58
2019-06-29T00:51:27.143Z,16.61
2019-06-29T00:52:27.162Z,16.60
2019-06-29T00:53:27.364Z,16.64
2019-06-29T00:54:27.647Z,16.53
2019-06-29T00:55:27.353Z,16.57
2019-06-29T00:56:27.155Z,16.57
2019-06-29T00:57:27.174Z,16.56
2019-06-29T00:58:27.158Z,16.57
2019-06-29T00:59:27.170Z,16.46
2019-06-29T01:00:27.168Z,16.50
2019-06-29T01:01:27.162Z,16.51
2019-06-29T01:02:27.195Z,16.43
2019-06-29T01:03:27.158Z,16.46
2019-06-29T01:04:27.159Z,16.47
2019-06-29T01:05:27.160Z,16.46
2019-06-29T01:06:27.376Z,16.38
2019-06-29T01:07:27.168Z,16.41
2019-06-29T01:08:27.169Z,16.38
2019-06-29T01:09:27.246Z,16.41
2019-06-29T01:10:27.180Z,16.35
2019-06-29T01:11:27.178Z,16.29
2019-06-29T01:12:27.383Z,16.29
2019-06-29T01:13:27.178Z,16.31
2019-06-29T01:14:27.183Z,16.31
2019-06-29T01:15:27.411Z,16.20
2019-06-29T01:16:27.188Z,16.20
2019-06-29T01:17:27.191Z,16.15
2019-06-29T01:18:27.191Z,16.10
2019-06-29T01:19:27.194Z,16.00
2019-06-29T01:20:27.207Z,16.12
2019-06-29T01:21:27.197Z,16.01
2019-06-29T01:22:27.229Z,16.12
2019-06-29T01:23:27.235Z,16.12
2019-06-29T01:24:42.347Z,16.09
2019-06-29T01:25:27.255Z,16.01
2019-06-29T01:26:27.207Z,16.04
2019-06-29T01:27:27.414Z,15.97
2019-06-29T01:28:27.219Z,16.05
2019-06-29T01:29:27.420Z,16.04
2019-06-29T01:30:27.430Z,15.94
2019-06-29T01:31:27.422Z,15.80
2019-06-29T01:32:27.230Z,15.73
2019-06-29T01:33:27.214Z,15.65
2019-06-29T01:34:27.220Z,15.59
2019-06-29T01:35:27.246Z,15.52
2019-06-29T01:36:27.235Z,15.43
2019-06-29T01:37:27.238Z,15.49
2019-06-29T01:38:27.232Z,15.44
2019-06-29T01:39:27.234Z,15.39
2019-06-29T01:40:27.235Z,15.35
2019-06-29T01:41:27.441Z,15.21
2019-06-29T01:42:27.442Z,15.27
2019-06-29T01:43:27.238Z,15.25
2019-06-29T01:44:27.441Z,15.22
2019-06-29T01:45:27.252Z,15.15
2019-06-29T01:46:27.245Z,15.18
2019-06-29T01:47:27.249Z,15.24
2019-06-29T01:48:27.273Z,15.24
2019-06-29T01:49:27.252Z,15.24
2019-06-29T01:50:27.449Z,15.22
2019-06-29T01:51:27.254Z,15.24
2019-06-29T01:52:27.271Z,15.24
2019-06-29T01:53:27.280Z,15.22
2019-06-29T01:54:27.266Z,15.14
2019-06-29T01:55:27.463Z,15.09
2019-06-29T01:56:27.260Z,15.14
2019-06-29T01:57:27.261Z,15.06
2019-06-29T01:58:27.482Z,15.06
2019-06-29T01:59:27.309Z,15.04
2019-06-29T02:00:27.474Z,14.99
2019-06-29T02:01:27.268Z,14.92
2019-06-29T02:02:27.278Z,14.88
2019-06-29T02:03:27.270Z,14.79
2019-06-29T02:04:27.280Z,14.79
2019-06-29T02:05:27.279Z,14.77
2019-06-29T02:06:27.271Z,14.73
2019-06-29T02:07:27.276Z,14.66
2019-06-29T02:08:27.306Z,14.66
2019-06-29T02:09:27.280Z,14.72
2019-06-29T02:10:27.275Z,14.68
2019-06-29T02:11:27.280Z,14.72
2019-06-29T02:12:27.281Z,14.77
2019-06-29T02:13:27.284Z,14.65
2019-06-29T02:14:27.287Z,14.77
2019-06-29T02:15:27.289Z,14.77
2019-06-29T02:16:27.318Z,14.73
2019-06-29T02:17:27.285Z,14.81
2019-06-29T02:18:27.290Z,14.73
2019-06-29T02:19:27.304Z,14.77
2019-06-29T02:20:27.293Z,14.79
2019-06-29T02:21:27.293Z,14.78
2019-06-29T02:22:27.349Z,14.72
2019-06-29T02:23:27.310Z,14.66
2019-06-29T02:24:27.372Z,14.55
2019-06-29T02:25:27.309Z,14.48
2019-06-29T02:26:27.325Z,14.58
2019-06-29T02:27:27.308Z,14.45
2019-06-29T02:28:27.308Z,14.44
2019-06-29T02:29:27.321Z,14.48
2019-06-29T02:30:27.528Z,14.28
2019-06-29T02:31:27.307Z,14.30
2019-06-29T02:32:27.320Z,14.29
2019-06-29T02:33:27.309Z,14.22
2019-06-29T02:34:27.321Z,14.23
2019-06-29T02:35:27.313Z,14.23
2019-06-29T02:36:27.320Z,14.26
2019-06-29T02:37:31.645Z,14.25
2019-06-29T02:38:27.323Z,14.29
2019-06-29T02:39:27.313Z,14.32
2019-06-29T02:40:27.319Z,14.29
2019-06-29T02:41:27.334Z,14.40
2019-06-29T02:42:27.325Z,14.37
2019-06-29T02:43:27.524Z,14.35
2019-06-29T02:44:27.539Z,14.47
2019-06-29T02:45:27.340Z,14.53
2019-06-29T02:46:27.333Z,14.51
2019-06-29T02:47:27.540Z,14.63
2019-06-29T02:48:27.345Z,14.65
2019-06-29T02:49:27.337Z,14.51
2019-06-29T02:50:27.530Z,14.41
2019-06-29T02:51:27.338Z,14.48
2019-06-29T02:52:27.332Z,14.28
2019-06-29T02:53:27.336Z,14.14
2019-06-29T02:54:27.331Z,14.20
2019-06-29T02:55:38.414Z,14.04
2019-06-29T02:56:27.334Z,13.86
2019-06-29T02:57:27.337Z,13.86
2019-06-29T02:58:27.349Z,13.79
2019-06-29T02:59:27.341Z,13.79
2019-06-29T03:00:27.541Z,13.78
2019-06-29T03:01:27.345Z,13.81
2019-06-29T03:02:27.539Z,13.81
2019-06-29T03:03:27.336Z,13.79
2019-06-29T03:04:27.339Z,13.83
2019-06-29T03:05:27.344Z,13.92
2019-06-29T03:06:31.757Z,13.86
2019-06-29T03:07:27.375Z,13.93
2019-06-29T03:08:27.357Z,13.95
2019-06-29T03:09:27.349Z,13.93
2019-06-29T03:10:27.359Z,13.90
2019-06-29T03:11:27.366Z,13.92
2019-06-29T03:12:27.357Z,13.79
2019-06-29T03:13:27.355Z,13.92
2019-06-29T03:14:27.370Z,13.95
2019-06-29T03:15:27.358Z,13.81
2019-06-29T03:16:27.352Z,13.75
2019-06-29T03:17:27.354Z,13.72
2019-06-29T03:18:27.373Z,13.68
2019-06-29T03:19:27.363Z,13.60
2019-06-29T03:20:27.360Z,13.60
2019-06-29T03:21:27.365Z,13.54
2019-06-29T03:22:27.375Z,13.50
2019-06-29T03:23:27.358Z,13.42
2019-06-29T03:24:27.368Z,13.44
2019-06-29T03:25:27.362Z,13.49
2019-06-29T03:26:27.566Z,13.52
2019-06-29T03:27:27.374Z,13.59
2019-06-29T03:28:27.565Z,13.54
2019-06-29T03:29:27.374Z,13.56
2019-06-29T03:30:27.373Z,13.52
2019-06-29T03:31:27.372Z,13.57
2019-06-29T03:32:27.375Z,13.62
2019-06-29T03:33:27.369Z,13.60
2019-06-29T03:34:27.370Z,13.54
2019-06-29T03:35:27.378Z,13.68
2019-06-29T03:36:27.375Z,13.68
2019-06-29T03:37:27.377Z,13.79
2019-06-29T03:38:27.364Z,13.81
2019-06-29T03:39:27.380Z,13.90
2019-06-29T03:40:28.906Z,14.04
2019-06-29T03:41:27.387Z,14.05
2019-06-29T03:42:27.375Z,14.18
2019-06-29T03:43:27.573Z,14.26
2019-06-29T03:44:27.582Z,14.25
2019-06-29T03:45:27.378Z,14.14
2019-06-29T03:46:27.372Z,14.15
2019-06-29T03:47:27.386Z,14.17
2019-06-29T03:48:27.381Z,14.08
2019-06-29T03:49:27.378Z,14.07
2019-06-29T03:50:27.376Z,13.92
2019-06-29T03:51:27.581Z,14.00
2019-06-29T03:52:27.404Z,13.99
2019-06-29T03:53:27.378Z,13.93
2019-06-29T03:55:27.399Z,13.81
2019-06-29T03:56:27.400Z,13.77
2019-06-29T03:57:27.397Z,13.78
2019-06-29T03:58:27.385Z,13.83
2019-06-29T03:59:27.396Z,13.75
2019-06-29T04:00:27.387Z,13.81
2019-06-29T04:01:27.398Z,13.85
2019-06-29T04:02:27.393Z,13.93
2019-06-29T04:03:27.399Z,13.99
2019-06-29T04:04:27.390Z,13.92
2019-06-29T04:05:27.400Z,13.93
2019-06-29T04:06:27.386Z,13.97
2019-06-29T04:07:27.400Z,14.03
2019-06-29T04:08:27.411Z,14.12
2019-06-29T04:09:27.394Z,14.18
2019-06-29T04:10:27.398Z,14.18
2019-06-29T04:11:27.393Z,14.17
2019-06-29T04:12:27.409Z,14.28
2019-06-29T04:13:27.404Z,14.33
2019-06-29T04:14:27.396Z,14.32
2019-06-29T04:15:27.402Z,14.41
2019-06-29T04:16:27.412Z,14.44
2019-06-29T04:17:27.393Z,14.50
2019-06-29T04:18:27.606Z,14.48
2019-06-29T04:19:27.406Z,14.55
2019-06-29T04:20:27.612Z,14.65
2019-06-29T04:21:27.613Z,14.66
2019-06-29T04:22:27.611Z,14.66
2019-06-29T04:23:27.400Z,14.70
2019-06-29T04:24:27.415Z,14.65
2019-06-29T04:25:27.641Z,14.78
2019-06-29T04:26:28.126Z,14.81
2019-06-29T04:27:27.426Z,14.89
2019-06-29T04:28:27.425Z,14.91
2019-06-29T04:29:27.412Z,14.86
2019-06-29T04:30:27.416Z,14.85
2019-06-29T04:31:27.406Z,15.00
2019-06-29T04:32:27.417Z,15.00
2019-06-29T04:33:27.424Z,15.02
2019-06-29T04:34:27.613Z,15.07
2019-06-29T04:35:27.413Z,15.00
2019-06-29T04:36:27.416Z,15.10
2019-06-29T04:37:27.415Z,15.14
2019-06-29T04:38:27.416Z,15.07
2019-06-29T04:39:27.419Z,15.21
2019-06-29T04:40:27.423Z,15.24
2019-06-29T04:41:27.619Z,15.21
2019-06-29T04:42:27.417Z,15.29
2019-06-29T04:43:27.424Z,15.28
2019-06-29T04:44:27.422Z,15.43
2019-06-29T04:45:27.416Z,15.37
2019-06-29T04:46:27.425Z,15.43
2019-06-29T04:47:27.420Z,15.52
2019-06-29T04:48:27.432Z,15.44
2019-06-29T04:49:27.627Z,15.47
2019-06-29T04:50:27.427Z,15.62
2019-06-29T04:51:27.437Z,15.64
2019-06-29T04:52:27.439Z,15.68
2019-06-29T04:53:27.644Z,15.72
2019-06-29T04:54:27.460Z,15.79
2019-06-29T04:55:27.644Z,15.95
2019-06-29T04:56:39.853Z,15.92
2019-06-29T04:57:27.436Z,16.04
2019-06-29T04:58:27.433Z,16.15
2019-06-29T04:59:27.447Z,16.13
2019-06-29T05:00:27.435Z,16.21
2019-06-29T05:01:27.467Z,16.20
2019-06-29T05:02:27.445Z,16.24
2019-06-29T05:03:27.435Z,16.33
2019-06-29T05:04:27.453Z,16.33
2019-06-29T05:05:27.443Z,16.35
2019-06-29T05:06:27.464Z,16.43
2019-06-29T05:07:27.441Z,16.38
2019-06-29T05:08:27.460Z,16.46
2019-06-29T05:09:27.446Z,16.47
2019-06-29T05:10:27.449Z,16.53
2019-06-29T05:11:27.465Z,16.56
2019-06-29T05:12:27.456Z,16.57
2019-06-29T05:13:27.673Z,16.61
2019-06-29T05:14:27.460Z,16.65
2019-06-29T05:15:27.672Z,16.74
2019-06-29T05:16:27.657Z,16.74
2019-06-29T05:17:27.466Z,16.81
2019-06-29T05:18:27.469Z,16.87
2019-06-29T05:19:27.458Z,16.87
2019-06-29T05:20:27.465Z,16.89
2019-06-29T05:21:27.490Z,17.05
2019-06-29T05:22:27.478Z,16.97
2019-06-29T05:23:27.473Z,17.11
2019-06-29T05:24:27.484Z,17.09
2019-06-29T05:25:27.481Z,17.22
2019-06-29T05:26:27.475Z,17.26
2019-06-29T05:27:27.666Z,17.26
2019-06-29T05:28:27.683Z,17.38
2019-06-29T05:29:27.470Z,17.44
2019-06-29T05:30:27.470Z,17.44
2019-06-29T05:31:27.471Z,17.54
2019-06-29T05:32:27.681Z,17.48
2019-06-29T05:33:27.480Z,17.57
2019-06-29T05:34:28.570Z,17.65
2019-06-29T05:35:27.476Z,17.63
2019-06-29T05:36:27.485Z,17.68
2019-06-29T05:37:27.486Z,17.72
2019-06-29T05:38:27.495Z,17.74
2019-06-29T05:39:27.502Z,17.83
2019-06-29T05:40:27.488Z,17.90
2019-06-29T05:41:27.491Z,17.94
2019-06-29T05:42:27.742Z,17.95
2019-06-29T05:43:27.495Z,18.01
2019-06-29T05:44:27.493Z,18.00
2019-06-29T05:45:27.497Z,18.07
2019-06-29T05:46:27.512Z,18.11
2019-06-29T05:47:29.281Z,18.13
2019-06-29T05:48:27.504Z,18.13
2019-06-29T05:49:27.508Z,18.25
2019-06-29T05:50:27.523Z,18.37
2019-06-29T05:51:27.518Z,18.31
2019-06-29T05:52:27.511Z,18.31
2019-06-29T05:53:27.506Z,18.37
2019-06-29T05:54:27.524Z,18.45
2019-06-29T05:55:27.510Z,18.56
2019-06-29T05:56:27.518Z,18.58
2019-06-29T05:57:27.523Z,18.60
2019-06-29T05:58:27.532Z,18.78
2019-06-29T05:59:27.522Z,18.73
2019-06-29T06:00:27.525Z,18.89
2019-06-29T06:01:27.532Z,18.92
2019-06-29T06:02:27.547Z,18.95
2019-06-29T06:03:27.736Z,18.93
2019-06-29T06:04:27.546Z,19.11
2019-06-29T06:05:27.541Z,19.07
2019-06-29T06:06:27.741Z,19.14
2019-06-29T06:07:27.543Z,19.09
2019-06-29T06:08:27.756Z,19.14
2019-06-29T06:09:27.743Z,19.21
2019-06-29T06:10:27.590Z,19.24
2019-06-29T06:11:27.693Z,19.18
2019-06-29T06:12:27.753Z,19.30
2019-06-29T06:13:27.554Z,19.36
2019-06-29T06:14:27.556Z,19.33
2019-06-29T06:15:27.573Z,19.40
2019-06-29T06:16:27.580Z,19.41
2019-06-29T06:17:27.580Z,19.36
2019-06-29T06:18:27.577Z,19.44
2019-06-29T06:19:27.574Z,19.49
2019-06-29T06:20:27.571Z,19.49
2019-06-29T06:21:27.582Z,19.54
2019-06-29T06:22:27.578Z,19.62
2019-06-29T06:23:27.577Z,19.64
2019-06-29T06:24:27.804Z,19.73
2019-06-29T06:25:27.611Z,19.74
2019-06-29T06:26:27.795Z,19.84
2019-06-29T06:27:32.927Z,19.76
2019-06-29T06:28:27.596Z,19.92
2019-06-29T06:29:27.596Z,19.96
2019-06-29T06:30:27.609Z,20.06
2019-06-29T06:31:27.605Z,20.11
2019-06-29T06:32:27.627Z,20.19
2019-06-29T06:33:27.615Z,20.24
2019-06-29T06:34:27.611Z,20.36
2019-06-29T06:35:27.613Z,20.29
2019-06-29T06:36:27.621Z,20.56
2019-06-29T06:37:27.640Z,20.72
2019-06-29T06:38:27.824Z,20.80
2019-06-29T06:39:27.855Z,20.95
2019-06-29T06:40:27.663Z,21.00
2019-06-29T06:41:27.644Z,21.18
2019-06-29T06:42:27.634Z,21.18
2019-06-29T06:43:27.629Z,21.29
2019-06-29T06:44:27.651Z,21.24
2019-06-29T06:45:27.655Z,21.20
2019-06-29T06:46:27.652Z,21.32
2019-06-29T06:47:27.648Z,21.35
2019-06-29T06:48:27.657Z,21.45
2019-06-29T06:49:27.677Z,21.39
2019-06-29T06:50:27.658Z,21.40
2019-06-29T06:51:27.671Z,21.48
2019-06-29T06:52:27.666Z,21.58
2019-06-29T06:53:27.673Z,21.62
2019-06-29T06:54:27.671Z,21.77
2019-06-29T06:55:27.671Z,21.80
2019-06-29T06:56:27.721Z,21.75
2019-06-29T06:57:27.685Z,21.73
2019-06-29T06:58:27.687Z,21.82
2019-06-29T06:59:27.739Z,21.92
2019-06-29T07:00:27.713Z,22.08
2019-06-29T07:01:27.697Z,22.15
2019-06-29T07:02:27.756Z,22.26
2019-06-29T07:03:27.696Z,22.38
2019-06-29T07:04:27.718Z,22.43
2019-06-29T07:05:27.706Z,22.43
2019-06-29T07:06:27.708Z,22.47
2019-06-29T07:07:27.721Z,22.44
2019-06-29T07:08:27.720Z,22.41
2019-06-29T07:09:27.720Z,22.38
2019-06-29T07:10:27.731Z,22.36
2019-06-29T07:11:27.755Z,22.48
2019-06-29T07:12:27.742Z,22.41
2019-06-29T07:13:27.738Z,22.54
2019-06-29T07:14:27.738Z,22.72
2019-06-29T07:15:27.734Z,22.85
2019-06-29T07:16:27.753Z,22.94
2019-06-29T07:17:27.762Z,22.96
2019-06-29T07:18:27.757Z,23.05
2019-06-29T07:19:27.773Z,23.17
2019-06-29T07:20:27.769Z,23.32
2019-06-29T07:21:27.764Z,23.41
2019-06-29T07:22:27.767Z,23.51
2019-06-29T07:23:27.782Z,23.73
2019-06-29T07:24:27.800Z,23.81
2019-06-29T07:25:27.782Z,23.83
2019-06-29T07:26:27.792Z,23.95
2019-06-29T07:27:27.793Z,24.06
2019-06-29T07:28:27.806Z,24.06
2019-06-29T07:29:27.799Z,24.01
2019-06-29T07:30:27.801Z,24.08
2019-06-29T07:31:27.816Z,24.17
2019-06-29T07:32:27.811Z,24.16
2019-06-29T07:33:27.805Z,24.08
2019-06-29T07:34:27.812Z,24.01
2019-06-29T07:35:27.831Z,23.96
2019-06-29T07:36:27.875Z,23.88
2019-06-29T07:37:27.825Z,23.83
2019-06-29T07:38:27.826Z,23.77
2019-06-29T07:39:27.837Z,23.69
2019-06-29T07:40:27.839Z,23.73
2019-06-29T07:41:27.941Z,23.74
2019-06-29T07:42:27.851Z,23.76
2019-06-29T07:43:27.851Z,23.68
2019-06-29T07:44:27.857Z,23.69
2019-06-29T07:45:27.896Z,23.68
2019-06-29T07:46:27.911Z,23.63
2019-06-29T07:47:27.882Z,23.86
2019-06-29T07:48:27.894Z,23.92
2019-06-29T07:49:27.914Z,24.20
2019-06-29T07:50:27.885Z,24.20
2019-06-29T07:51:27.891Z,24.10
2019-06-29T07:52:27.901Z,24.20
2019-06-29T07:53:27.893Z,24.24
2019-06-29T07:54:27.900Z,24.39
2019-06-29T07:55:27.900Z,24.60
2019-06-29T07:56:27.919Z,24.63
2019-06-29T07:57:27.916Z,24.77
2019-06-29T07:58:27.920Z,24.66
2019-06-29T07:59:27.952Z,24.80
2019-06-29T08:00:27.931Z,24.70
2019-06-29T08:01:27.936Z,24.76
2019-06-29T08:02:27.958Z,24.65
2019-06-29T08:03:27.954Z,24.78
2019-06-29T08:04:27.948Z,24.69
2019-06-29T08:05:27.945Z,24.74
2019-06-29T08:06:27.968Z,24.73
2019-06-29T08:07:30.171Z,24.73
2019-06-29T08:08:27.978Z,24.63
2019-06-29T08:09:27.971Z,24.55
2019-06-29T08:10:27.986Z,24.76
2019-06-29T08:11:28.081Z,24.85
2019-06-29T08:12:28.208Z,24.92
2019-06-29T08:13:27.981Z,25.16
2019-06-29T08:14:27.999Z,25.43
2019-06-29T08:15:28.018Z,25.62
2019-06-29T08:16:28.005Z,25.66
2019-06-29T08:17:28.024Z,25.68
2019-06-29T08:18:28.013Z,25.66
2019-06-29T08:19:28.017Z,25.63
2019-06-29T08:20:28.023Z,25.80
2019-06-29T08:21:28.037Z,25.83
2019-06-29T08:22:28.038Z,26.02
2019-06-29T08:23:28.070Z,26.21
2019-06-29T08:24:29.995Z,26.37
2019-06-29T08:25:28.050Z,26.56
2019-06-29T08:26:28.069Z,26.75
2019-06-29T08:27:28.095Z,26.80
2019-06-29T08:28:37.596Z,26.70
2019-06-29T08:29:28.072Z,26.51
2019-06-29T08:30:28.080Z,26.51
2019-06-29T08:31:28.314Z,26.58
2019-06-29T08:32:28.106Z,26.65
2019-06-29T08:33:28.102Z,26.81
2019-06-29T08:34:28.110Z,26.92
2019-06-29T08:35:28.123Z,27.11
2019-06-29T08:36:28.328Z,27.27
2019-06-29T08:37:28.116Z,27.20
2019-06-29T08:38:28.154Z,27.25
2019-06-29T08:39:28.131Z,27.25
2019-06-29T08:40:28.151Z,27.10
2019-06-29T08:41:28.147Z,26.95
2019-06-29T08:42:28.144Z,26.93
2019-06-29T08:43:28.165Z,26.85
2019-06-29T08:44:28.166Z,26.89
2019-06-29T08:45:28.368Z,27.00
2019-06-29T08:46:28.177Z,27.02
2019-06-29T08:47:28.178Z,26.84
2019-06-29T08:48:28.183Z,26.81
2019-06-29T08:49:28.210Z,26.81
2019-06-29T08:50:28.197Z,26.83
2019-06-29T08:51:28.201Z,26.93
2019-06-29T08:52:28.218Z,26.96
2019-06-29T08:53:28.416Z,27.17
2019-06-29T08:54:28.223Z,27.18
2019-06-29T08:55:28.425Z,27.33
2019-06-29T08:56:28.226Z,27.51
2019-06-29T08:57:28.232Z,27.80
2019-06-29T08:58:28.251Z,27.73
2019-06-29T08:59:28.253Z,27.67
2019-06-29T09:00:28.250Z,27.58
2019-06-29T09:01:28.265Z,27.44
2019-06-29T09:02:28.266Z,27.45
2019-06-29T09:03:28.263Z,27.40
2019-06-29T09:04:28.288Z,27.26
2019-06-29T09:05:28.291Z,27.18
2019-06-29T09:06:28.287Z,27.22
2019-06-29T09:07:28.296Z,27.18
2019-06-29T09:08:28.297Z,27.26
2019-06-29T09:09:28.308Z,27.39
2019-06-29T09:10:28.313Z,27.35
2019-06-29T09:11:28.307Z,27.37
2019-06-29T09:12:28.321Z,27.32
2019-06-29T09:13:28.529Z,27.22
2019-06-29T09:14:28.330Z,26.99
2019-06-29T09:15:28.341Z,26.84
2019-06-29T09:16:28.870Z,26.95
2019-06-29T09:17:28.363Z,26.84
2019-06-29T09:18:28.354Z,26.78
2019-06-29T09:19:28.356Z,27.02
2019-06-29T09:20:28.375Z,26.99
2019-06-29T09:21:28.376Z,27.25
2019-06-29T09:22:28.365Z,27.39
2019-06-29T09:23:28.391Z,27.32
2019-06-29T09:24:28.390Z,27.47
2019-06-29T09:25:28.404Z,27.47
2019-06-29T09:26:28.417Z,27.39
2019-06-29T09:27:36.307Z,27.27
2019-06-29T09:28:28.409Z,27.10
2019-06-29T09:29:28.410Z,26.96
2019-06-29T09:30:28.423Z,26.84
2019-06-29T09:31:28.421Z,26.62
2019-06-29T09:32:28.439Z,26.48
2019-06-29T09:33:28.450Z,26.44
2019-06-29T09:34:28.474Z,26.34
2019-06-29T09:35:28.451Z,26.44
2019-06-29T09:36:28.466Z,26.66
2019-06-29T09:37:28.458Z,26.93
2019-06-29T09:38:28.479Z,27.20
2019-06-29T09:39:28.499Z,27.30
2019-06-29T09:40:28.474Z,27.48
2019-06-29T09:41:28.477Z,27.54
2019-06-29T09:42:28.498Z,27.51
2019-06-29T09:43:28.492Z,27.55
2019-06-29T09:44:28.520Z,27.70
2019-06-29T09:45:28.715Z,27.64
2019-06-29T09:46:28.512Z,27.65
2019-06-29T09:47:28.533Z,27.77
2019-06-29T09:48:28.518Z,27.89
2019-06-29T09:49:28.536Z,27.95
2019-06-29T09:50:28.551Z,28.04
2019-06-29T09:51:28.535Z,28.17
2019-06-29T09:52:28.751Z,28.22
2019-06-29T09:53:28.565Z,28.33
2019-06-29T09:54:28.554Z,28.25
2019-06-29T09:55:28.581Z,28.14
2019-06-29T09:56:28.769Z,27.95
2019-06-29T09:57:31.144Z,27.96
2019-06-29T09:58:28.583Z,27.92
2019-06-29T09:59:33.147Z,27.93
2019-06-29T10:00:28.599Z,28.01
2019-06-29T10:01:28.599Z,28.22
2019-06-29T10:02:28.607Z,28.22
2019-06-29T10:03:28.611Z,28.32
2019-06-29T10:04:28.623Z,28.25
2019-06-29T10:05:28.632Z,28.22
2019-06-29T10:06:29.139Z,28.15
2019-06-29T10:07:28.649Z,28.17
2019-06-29T10:08:28.638Z,28.17
2019-06-29T10:09:31.070Z,28.11
2019-06-29T10:10:28.651Z,28.17
2019-06-29T10:11:28.658Z,28.20
2019-06-29T10:12:28.682Z,28.07
2019-06-29T10:13:28.681Z,28.01
2019-06-29T10:14:28.697Z,27.98
2019-06-29T10:15:28.675Z,28.22
2019-06-29T10:16:28.688Z,28.44
2019-06-29T10:17:28.694Z,28.57
2019-06-29T10:18:28.706Z,28.85
2019-06-29T10:19:31.173Z,28.88
2019-06-29T10:20:28.715Z,28.81
2019-06-29T10:21:31.443Z,28.69
2019-06-29T10:22:28.726Z,28.47
2019-06-29T10:23:28.736Z,28.39
2019-06-29T10:24:28.741Z,28.27
2019-06-29T10:25:28.741Z,28.14
2019-06-29T10:26:31.531Z,28.00
2019-06-29T10:27:31.404Z,27.98
2019-06-29T10:28:28.761Z,28.01
2019-06-29T10:29:28.771Z,28.12
2019-06-29T10:30:28.799Z,28.17
2019-06-29T10:31:31.679Z,28.12
2019-06-29T10:32:31.496Z,28.14
2019-06-29T10:33:28.800Z,28.22
2019-06-29T10:34:39.474Z,28.15
2019-06-29T10:35:28.829Z,28.30
2019-06-29T10:36:28.809Z,28.32
2019-06-29T10:37:31.394Z,28.48
2019-06-29T10:38:28.825Z,28.78
2019-06-29T10:39:31.638Z,28.81
2019-06-29T10:40:28.848Z,28.67
2019-06-29T10:41:28.845Z,28.48
2019-06-29T10:42:28.861Z,28.49
2019-06-29T10:43:28.860Z,28.56
2019-06-29T10:44:28.878Z,28.56
2019-06-29T10:45:28.875Z,28.57
2019-06-29T10:46:31.176Z,28.38
2019-06-29T10:47:31.637Z,28.27
2019-06-29T10:48:28.882Z,28.22
2019-06-29T10:49:28.903Z,28.15
2019-06-29T10:50:28.920Z,28.25
2019-06-29T10:51:31.451Z,28.29
2019-06-29T10:52:31.932Z,28.38
2019-06-29T10:53:28.932Z,28.39
2019-06-29T10:54:29.151Z,28.23
2019-06-29T10:55:29.136Z,28.25
2019-06-29T10:56:28.941Z,28.30
2019-06-29T10:57:28.946Z,28.22
2019-06-29T10:58:31.700Z,28.20
2019-06-29T10:59:28.966Z,28.33
2019-06-29T11:00:28.980Z,28.57
2019-06-29T11:01:31.160Z,28.67
2019-06-29T11:02:31.256Z,28.81
2019-06-29T11:03:28.993Z,28.91
2019-06-29T11:04:31.516Z,29.05
2019-06-29T11:05:33.795Z,29.01
2019-06-29T11:06:31.124Z,29.08
2019-06-29T11:07:29.009Z,29.04
2019-06-29T11:08:29.016Z,28.98
2019-06-29T11:09:29.041Z,28.93
2019-06-29T11:10:32.048Z,28.88
2019-06-29T11:11:41.977Z,28.78
2019-06-29T11:12:29.045Z,28.78
2019-06-29T11:13:31.357Z,28.89
2019-06-29T11:14:31.258Z,28.88
2019-06-29T11:15:29.072Z,28.96
2019-06-29T11:16:29.069Z,28.86
2019-06-29T11:17:29.077Z,28.88
2019-06-29T11:18:29.085Z,28.91
2019-06-29T11:19:31.319Z,28.86
2019-06-29T11:20:29.104Z,28.82
2019-06-29T11:21:31.418Z,28.78
2019-06-29T11:22:34.069Z,28.64
2019-06-29T11:23:29.140Z,28.51
2019-06-29T11:24:42.363Z,28.59
2019-06-29T11:25:32.522Z,28.64
2019-06-29T11:26:31.515Z,28.62
2019-06-29T11:27:32.024Z,28.60
2019-06-29T11:28:34.747Z,28.51
2019-06-29T11:29:31.827Z,28.49
2019-06-29T11:30:32.294Z,28.59
2019-06-29T11:31:31.081Z,28.57
2019-06-29T11:32:32.632Z,28.42
2019-06-29T11:33:29.215Z,28.57
2019-06-29T11:34:31.630Z,28.75
2019-06-29T11:35:32.296Z,28.89
2019-06-29T11:36:29.208Z,29.04
2019-06-29T11:37:31.682Z,29.31
2019-06-29T11:38:29.216Z,29.36
2019-06-29T11:39:31.241Z,29.44
2019-06-29T11:40:31.577Z,29.59
2019-06-29T11:41:29.233Z,29.66
2019-06-29T11:42:34.708Z,29.56
2019-06-29T11:43:31.523Z,29.54
2019-06-29T11:44:31.300Z,29.39
2019-06-29T11:45:29.269Z,29.36
2019-06-29T11:46:31.370Z,29.14
2019-06-29T11:47:29.295Z,29.10
2019-06-29T11:48:29.278Z,29.16
2019-06-29T11:49:31.325Z,29.29
2019-06-29T11:50:31.913Z,29.36
2019-06-29T11:51:31.711Z,29.34
2019-06-29T11:52:29.337Z,29.19
2019-06-29T11:53:31.469Z,29.05
2019-06-29T11:54:31.750Z,29.16
2019-06-29T11:55:33.519Z,29.10
2019-06-29T11:56:35.593Z,29.16
2019-06-29T11:57:29.349Z,29.12
2019-06-29T11:58:32.199Z,29.10
2019-06-29T11:59:31.836Z,29.10
2019-06-29T12:00:43.549Z,29.13
2019-06-29T12:01:31.340Z,29.07
2019-06-29T12:02:32.128Z,29.08
2019-06-29T12:03:29.389Z,29.05
2019-06-29T12:04:31.765Z,29.02
2019-06-29T12:05:32.487Z,28.86
2019-06-29T12:06:31.760Z,28.81
2019-06-29T12:07:29.423Z,28.67
2019-06-29T12:08:32.458Z,28.62
2019-06-29T12:09:31.763Z,28.52
2019-06-29T12:10:31.435Z,28.45
2019-06-29T12:11:29.473Z,28.56
2019-06-29T12:12:31.704Z,28.63
2019-06-29T12:13:31.861Z,28.64
2019-06-29T12:14:32.145Z,28.63
2019-06-29T12:15:29.474Z,28.57
2019-06-29T12:16:29.482Z,28.78
2019-06-29T12:17:32.084Z,28.91
2019-06-29T12:18:29.700Z,29.14
2019-06-29T12:19:32.590Z,29.05
2019-06-29T12:20:31.562Z,29.05
2019-06-29T12:21:31.822Z,29.08
2019-06-29T12:22:29.544Z,29.14
2019-06-29T12:23:32.422Z,29.12
2019-06-29T12:24:29.549Z,29.08
2019-06-29T12:25:29.737Z,28.97
2019-06-29T12:26:32.057Z,28.86
2019-06-29T12:27:32.208Z,28.79
2019-06-29T12:28:32.219Z,28.78
2019-06-29T12:29:31.658Z,28.96
2019-06-29T12:30:29.564Z,29.02
2019-06-29T12:31:32.478Z,29.27
2019-06-29T12:32:29.585Z,29.29
2019-06-29T12:33:31.507Z,29.34
2019-06-29T12:34:34.259Z,29.31
2019-06-29T12:35:31.039Z,29.32
2019-06-29T12:36:32.459Z,29.34
2019-06-29T12:37:31.468Z,29.34
2019-06-29T12:38:29.636Z,29.32
2019-06-29T12:39:31.753Z,29.23
2019-06-29T12:40:32.015Z,29.12
2019-06-29T12:41:31.636Z,29.04
2019-06-29T12:42:31.505Z,28.93
2019-06-29T12:43:32.225Z,28.78
2019-06-29T12:44:33.439Z,28.75
2019-06-29T12:45:31.942Z,28.70
2019-06-29T12:46:31.896Z,28.63
2019-06-29T12:47:29.884Z,28.67
2019-06-29T12:48:31.398Z,28.74
2019-06-29T12:49:31.998Z,28.94
2019-06-29T12:50:31.707Z,28.94
2019-06-29T12:51:31.808Z,28.94
2019-06-29T12:52:31.536Z,28.97
2019-06-29T12:53:31.466Z,28.82